sensor_id;sensor_type;location;lat;lon;timestamp;temperature;humidity
5956;DHT22;3004;48.080;11.600;2022-07-21T00:00:19;19.40;99.90
5956;DHT22;3004;48.080;11.600;2022-07-21T00:02:46;19.40;99.90
5956;DHT22;3004;48.080;11.600;2022-07-21T00:05:14;19.40;99.90
5956;DHT22;3004;48.080;11.600;2022-07-21T00:07:45;19.40;99.90
5956;DHT22;3004;48.080;11.600;2022-07-21T00:10:15;19.30;99.90
5956;DHT22;3004;48.080;11.600;2022-07-21T00:12:43;19.40;99.90
5956;DHT22;3004;48.080;11.600;2022-07-21T00:15:10;19.40;99.90
5956;DHT22;3004;48.080;11.600;2022-07-21T00:17:39;19.50;99.90
5956;DHT22;3004;48.080;11.600;2022-07-21T00:20:07;19.50;99.90
5956;DHT22;3004;48.080;11.600;2022-07-21T00:22:34;19.40;99.90
5956;DHT22;3004;48.080;11.600;2022-07-21T00:25:03;19.40;99.90
5956;DHT22;3004;48.080;11.600;2022-07-21T00:27:30;19.40;99.90
5956;DHT22;3004;48.080;11.600;2022-07-21T00:29:58;19.40;99.90
5956;DHT22;3004;48.080;11.600;2022-07-21T00:32:25;19.30;99.90
5956;DHT22;3004;48.080;11.600;2022-07-21T00:34:52;19.30;99.90
5956;DHT22;3004;48.080;11.600;2022-07-21T00:37:19;19.30;99.90
5956;DHT22;3004;48.080;11.600;2022-07-21T00:39:49;19.10;99.90
5956;DHT22;3004;48.080;11.600;2022-07-21T00:42:27;19.20;99.90
5956;DHT22;3004;48.080;11.600;2022-07-21T00:44:55;19.20;99.90
5956;DHT22;3004;48.080;11.600;2022-07-21T00:47:23;19.20;99.90
5956;DHT22;3004;48.080;11.600;2022-07-21T00:49:51;19.10;99.90
5956;DHT22;3004;48.080;11.600;2022-07-21T00:52:19;19.20;99.90
5956;DHT22;3004;48.080;11.600;2022-07-21T00:54:47;19.20;99.90
5956;DHT22;3004;48.080;11.600;2022-07-21T00:57:14;19.20;99.90
5956;DHT22;3004;48.080;11.600;2022-07-21T00:59:43;19.20;99.90
5956;DHT22;3004;48.080;11.600;2022-07-21T01:02:14;19.10;99.90
5956;DHT22;3004;48.080;11.600;2022-07-21T01:04:42;19.10;99.90
5956;DHT22;3004;48.080;11.600;2022-07-21T01:07:09;19.10;99.90
5956;DHT22;3004;48.080;11.600;2022-07-21T01:09:36;19.10;99.90
5956;DHT22;3004;48.080;11.600;2022-07-21T01:12:03;19.10;99.90
5956;DHT22;3004;48.080;11.600;2022-07-21T01:14:31;19.10;99.90
5956;DHT22;3004;48.080;11.600;2022-07-21T01:17:00;19.10;99.90
5956;DHT22;3004;48.080;11.600;2022-07-21T01:19:33;19.10;99.90
5956;DHT22;3004;48.080;11.600;2022-07-21T01:22:03;19.00;99.90
5956;DHT22;3004;48.080;11.600;2022-07-21T01:24:30;19.10;99.90
5956;DHT22;3004;48.080;11.600;2022-07-21T01:26:57;19.00;99.90
5956;DHT22;3004;48.080;11.600;2022-07-21T01:29:24;19.00;99.90
5956;DHT22;3004;48.080;11.600;2022-07-21T01:31:51;19.00;99.90
5956;DHT22;3004;48.080;11.600;2022-07-21T01:34:19;19.00;99.90
5956;DHT22;3004;48.080;11.600;2022-07-21T01:36:48;18.80;99.90
5956;DHT22;3004;48.080;11.600;2022-07-21T01:39:16;18.80;99.90
5956;DHT22;3004;48.080;11.600;2022-07-21T01:42:01;18.70;99.90
5956;DHT22;3004;48.080;11.600;2022-07-21T01:44:28;18.70;99.90
5956;DHT22;3004;48.080;11.600;2022-07-21T01:46:55;18.70;99.90
5956;DHT22;3004;48.080;11.600;2022-07-21T01:49:22;18.60;99.90
5956;DHT22;3004;48.080;11.600;2022-07-21T01:51:49;18.60;99.90
5956;DHT22;3004;48.080;11.600;2022-07-21T01:54:18;18.60;99.90
5956;DHT22;3004;48.080;11.600;2022-07-21T01:56:45;18.50;99.90
5956;DHT22;3004;48.080;11.600;2022-07-21T01:59:11;18.60;99.90
5956;DHT22;3004;48.080;11.600;2022-07-21T02:01:38;18.60;99.90
5956;DHT22;3004;48.080;11.600;2022-07-21T02:04:05;18.60;99.90
5956;DHT22;3004;48.080;11.600;2022-07-21T02:06:32;18.50;99.90
5956;DHT22;3004;48.080;11.600;2022-07-21T02:09:00;18.50;99.90
5956;DHT22;3004;48.080;11.600;2022-07-21T02:11:28;18.50;99.90
5956;DHT22;3004;48.080;11.600;2022-07-21T02:13:55;18.50;99.90
5956;DHT22;3004;48.080;11.600;2022-07-21T02:16:22;18.40;99.90
5956;DHT22;3004;48.080;11.600;2022-07-21T02:18:49;18.50;99.90
5956;DHT22;3004;48.080;11.600;2022-07-21T02:21:16;18.40;99.90
5956;DHT22;3004;48.080;11.600;2022-07-21T02:23:43;18.40;99.90
5956;DHT22;3004;48.080;11.600;2022-07-21T02:26:10;18.40;99.90
5956;DHT22;3004;48.080;11.600;2022-07-21T02:28:39;18.40;99.90
5956;DHT22;3004;48.080;11.600;2022-07-21T02:31:06;18.40;99.90
5956;DHT22;3004;48.080;11.600;2022-07-21T02:33:33;18.40;99.90
5956;DHT22;3004;48.080;11.600;2022-07-21T02:36:00;18.40;99.90
5956;DHT22;3004;48.080;11.600;2022-07-21T02:38:27;18.40;99.90
5956;DHT22;3004;48.080;11.600;2022-07-21T02:40:54;18.40;99.90
5956;DHT22;3004;48.080;11.600;2022-07-21T02:43:21;18.50;99.90
5956;DHT22;3004;48.080;11.600;2022-07-21T02:45:49;18.50;99.90
5956;DHT22;3004;48.080;11.600;2022-07-21T02:48:16;18.40;99.90
5956;DHT22;3004;48.080;11.600;2022-07-21T02:50:43;18.50;99.90
5956;DHT22;3004;48.080;11.600;2022-07-21T02:53:12;18.40;99.90
5956;DHT22;3004;48.080;11.600;2022-07-21T02:55:39;18.50;99.90
5956;DHT22;3004;48.080;11.600;2022-07-21T02:58:08;18.50;99.90
5956;DHT22;3004;48.080;11.600;2022-07-21T03:00:37;18.50;99.90
5956;DHT22;3004;48.080;11.600;2022-07-21T03:03:07;18.50;99.90
5956;DHT22;3004;48.080;11.600;2022-07-21T03:05:35;18.60;99.90
5956;DHT22;3004;48.080;11.600;2022-07-21T03:08:03;18.40;99.90
5956;DHT22;3004;48.080;11.600;2022-07-21T03:10:31;18.40;99.90
5956;DHT22;3004;48.080;11.600;2022-07-21T03:12:58;18.50;99.90
5956;DHT22;3004;48.080;11.600;2022-07-21T03:15:25;18.50;99.90
5956;DHT22;3004;48.080;11.600;2022-07-21T03:17:52;18.40;99.90
5956;DHT22;3004;48.080;11.600;2022-07-21T03:20:22;18.50;99.90
5956;DHT22;3004;48.080;11.600;2022-07-21T03:22:49;18.40;99.90
5956;DHT22;3004;48.080;11.600;2022-07-21T03:25:16;18.40;99.90
5956;DHT22;3004;48.080;11.600;2022-07-21T03:27:43;18.50;99.90
5956;DHT22;3004;48.080;11.600;2022-07-21T03:30:11;18.50;99.90
5956;DHT22;3004;48.080;11.600;2022-07-21T03:32:38;18.40;99.90
5956;DHT22;3004;48.080;11.600;2022-07-21T03:35:08;18.30;99.90
5956;DHT22;3004;48.080;11.600;2022-07-21T03:37:41;18.40;99.90
5956;DHT22;3004;48.080;11.600;2022-07-21T03:40:10;18.40;99.90
5956;DHT22;3004;48.080;11.600;2022-07-21T03:42:37;18.50;99.90
5956;DHT22;3004;48.080;11.600;2022-07-21T03:45:05;18.50;99.90
5956;DHT22;3004;48.080;11.600;2022-07-21T03:47:32;18.50;99.90
5956;DHT22;3004;48.080;11.600;2022-07-21T03:49:59;18.50;99.90
5956;DHT22;3004;48.080;11.600;2022-07-21T03:52:26;18.40;99.90
5956;DHT22;3004;48.080;11.600;2022-07-21T03:54:54;18.40;99.90
5956;DHT22;3004;48.080;11.600;2022-07-21T03:57:37;18.40;99.90
5956;DHT22;3004;48.080;11.600;2022-07-21T04:00:07;18.50;99.90
5956;DHT22;3004;48.080;11.600;2022-07-21T04:02:34;18.60;99.90
5956;DHT22;3004;48.080;11.600;2022-07-21T04:05:01;18.60;99.90
5956;DHT22;3004;48.080;11.600;2022-07-21T04:07:29;18.60;99.90
5956;DHT22;3004;48.080;11.600;2022-07-21T04:09:57;18.70;99.90
5956;DHT22;3004;48.080;11.600;2022-07-21T04:12:25;18.70;99.90
5956;DHT22;3004;48.080;11.600;2022-07-21T04:14:53;18.70;99.90
5956;DHT22;3004;48.080;11.600;2022-07-21T04:17:19;18.80;99.90
5956;DHT22;3004;48.080;11.600;2022-07-21T04:19:46;18.80;99.90
5956;DHT22;3004;48.080;11.600;2022-07-21T04:22:13;18.80;99.90
5956;DHT22;3004;48.080;11.600;2022-07-21T04:24:40;18.90;99.90
5956;DHT22;3004;48.080;11.600;2022-07-21T04:27:09;18.90;99.90
5956;DHT22;3004;48.080;11.600;2022-07-21T04:29:36;18.90;99.90
5956;DHT22;3004;48.080;11.600;2022-07-21T04:32:04;18.90;99.90
5956;DHT22;3004;48.080;11.600;2022-07-21T04:34:31;18.90;99.90
5956;DHT22;3004;48.080;11.600;2022-07-21T04:36:58;19.00;99.90
5956;DHT22;3004;48.080;11.600;2022-07-21T04:39:25;19.00;99.90
5956;DHT22;3004;48.080;11.600;2022-07-21T04:41:53;19.00;99.90
5956;DHT22;3004;48.080;11.600;2022-07-21T04:44:21;19.00;99.90
5956;DHT22;3004;48.080;11.600;2022-07-21T04:46:48;19.00;99.90
5956;DHT22;3004;48.080;11.600;2022-07-21T04:49:15;19.00;99.90
5956;DHT22;3004;48.080;11.600;2022-07-21T04:51:42;19.00;99.90
5956;DHT22;3004;48.080;11.600;2022-07-21T04:54:09;19.00;99.90
5956;DHT22;3004;48.080;11.600;2022-07-21T04:56:39;19.10;99.90
5956;DHT22;3004;48.080;11.600;2022-07-21T04:59:06;19.10;99.90
5956;DHT22;3004;48.080;11.600;2022-07-21T05:01:35;19.10;99.90
5956;DHT22;3004;48.080;11.600;2022-07-21T05:04:02;19.10;99.90
5956;DHT22;3004;48.080;11.600;2022-07-21T05:06:29;19.20;99.90
5956;DHT22;3004;48.080;11.600;2022-07-21T05:08:56;19.20;99.90
5956;DHT22;3004;48.080;11.600;2022-07-21T05:11:23;19.20;99.90
5956;DHT22;3004;48.080;11.600;2022-07-21T05:13:50;19.20;99.90
5956;DHT22;3004;48.080;11.600;2022-07-21T05:16:17;19.30;99.90
5956;DHT22;3004;48.080;11.600;2022-07-21T05:18:45;19.30;99.90
5956;DHT22;3004;48.080;11.600;2022-07-21T05:21:12;19.30;99.90
5956;DHT22;3004;48.080;11.600;2022-07-21T05:23:39;19.40;99.90
5956;DHT22;3004;48.080;11.600;2022-07-21T05:26:06;19.40;99.90
5956;DHT22;3004;48.080;11.600;2022-07-21T05:28:33;19.40;99.90
5956;DHT22;3004;48.080;11.600;2022-07-21T05:31:00;19.50;99.90
5956;DHT22;3004;48.080;11.600;2022-07-21T05:33:27;19.50;99.90
5956;DHT22;3004;48.080;11.600;2022-07-21T05:35:55;19.50;99.90
5956;DHT22;3004;48.080;11.600;2022-07-21T05:38:22;19.60;99.90
5956;DHT22;3004;48.080;11.600;2022-07-21T05:40:49;19.60;99.90
5956;DHT22;3004;48.080;11.600;2022-07-21T05:43:16;19.70;99.90
5956;DHT22;3004;48.080;11.600;2022-07-21T05:45:43;19.60;99.90
5956;DHT22;3004;48.080;11.600;2022-07-21T05:48:09;19.70;99.90
5956;DHT22;3004;48.080;11.600;2022-07-21T05:50:36;19.70;99.90
5956;DHT22;3004;48.080;11.600;2022-07-21T05:53:05;19.70;99.90
5956;DHT22;3004;48.080;11.600;2022-07-21T05:55:31;19.80;99.90
5956;DHT22;3004;48.080;11.600;2022-07-21T05:57:58;19.80;99.90
5956;DHT22;3004;48.080;11.600;2022-07-21T06:00:25;19.90;99.90
5956;DHT22;3004;48.080;11.600;2022-07-21T06:02:52;20.00;99.90
5956;DHT22;3004;48.080;11.600;2022-07-21T06:05:19;20.10;99.90
5956;DHT22;3004;48.080;11.600;2022-07-21T06:07:46;20.00;99.90
5956;DHT22;3004;48.080;11.600;2022-07-21T06:10:15;20.00;99.90
5956;DHT22;3004;48.080;11.600;2022-07-21T06:12:43;20.10;99.90
5956;DHT22;3004;48.080;11.600;2022-07-21T06:15:12;20.10;99.90
5956;DHT22;3004;48.080;11.600;2022-07-21T06:17:42;20.10;99.90
5956;DHT22;3004;48.080;11.600;2022-07-21T06:20:09;20.10;99.90
5956;DHT22;3004;48.080;11.600;2022-07-21T06:22:37;20.10;99.90
5956;DHT22;3004;48.080;11.600;2022-07-21T06:25:05;20.10;99.90
5956;DHT22;3004;48.080;11.600;2022-07-21T06:27:33;20.10;99.90
5956;DHT22;3004;48.080;11.600;2022-07-21T06:30:05;20.20;99.90
5956;DHT22;3004;48.080;11.600;2022-07-21T06:32:32;20.20;99.90
5956;DHT22;3004;48.080;11.600;2022-07-21T06:34:59;20.40;99.90
5956;DHT22;3004;48.080;11.600;2022-07-21T06:37:26;20.40;99.90
5956;DHT22;3004;48.080;11.600;2022-07-21T06:39:52;20.50;99.90
5956;DHT22;3004;48.080;11.600;2022-07-21T06:42:19;20.50;99.90
5956;DHT22;3004;48.080;11.600;2022-07-21T06:44:47;20.50;99.90
5956;DHT22;3004;48.080;11.600;2022-07-21T06:47:14;20.60;99.90
5956;DHT22;3004;48.080;11.600;2022-07-21T06:49:41;20.60;99.90
5956;DHT22;3004;48.080;11.600;2022-07-21T06:52:08;20.60;99.90
5956;DHT22;3004;48.080;11.600;2022-07-21T06:54:35;20.60;99.90
5956;DHT22;3004;48.080;11.600;2022-07-21T06:57:01;20.60;99.90
5956;DHT22;3004;48.080;11.600;2022-07-21T06:59:31;20.60;99.90
5956;DHT22;3004;48.080;11.600;2022-07-21T07:02:00;20.60;99.90
5956;DHT22;3004;48.080;11.600;2022-07-21T07:04:28;20.60;99.90
5956;DHT22;3004;48.080;11.600;2022-07-21T07:06:55;20.60;99.90
5956;DHT22;3004;48.080;11.600;2022-07-21T07:09:22;20.60;99.90
5956;DHT22;3004;48.080;11.600;2022-07-21T07:11:49;20.70;99.90
5956;DHT22;3004;48.080;11.600;2022-07-21T07:14:17;20.70;99.90
5956;DHT22;3004;48.080;11.600;2022-07-21T07:16:44;20.80;99.90
5956;DHT22;3004;48.080;11.600;2022-07-21T07:19:13;20.90;99.90
5956;DHT22;3004;48.080;11.600;2022-07-21T07:21:40;20.90;99.90
5956;DHT22;3004;48.080;11.600;2022-07-21T07:24:07;20.80;99.90
5956;DHT22;3004;48.080;11.600;2022-07-21T07:26:34;20.80;99.90
5956;DHT22;3004;48.080;11.600;2022-07-21T07:29:01;20.80;99.90
5956;DHT22;3004;48.080;11.600;2022-07-21T07:31:28;20.90;99.90
5956;DHT22;3004;48.080;11.600;2022-07-21T07:33:55;20.90;99.90
5956;DHT22;3004;48.080;11.600;2022-07-21T07:36:24;21.00;99.90
5956;DHT22;3004;48.080;11.600;2022-07-21T07:38:51;21.00;99.90
5956;DHT22;3004;48.080;11.600;2022-07-21T07:41:18;21.00;99.90
5956;DHT22;3004;48.080;11.600;2022-07-21T07:43:45;21.10;99.90
5956;DHT22;3004;48.080;11.600;2022-07-21T07:46:13;21.20;99.90
5956;DHT22;3004;48.080;11.600;2022-07-21T07:48:41;21.10;99.90
5956;DHT22;3004;48.080;11.600;2022-07-21T07:51:10;21.10;99.90
5956;DHT22;3004;48.080;11.600;2022-07-21T07:53:40;21.10;99.90
5956;DHT22;3004;48.080;11.600;2022-07-21T07:56:07;21.00;99.90
5956;DHT22;3004;48.080;11.600;2022-07-21T07:58:34;21.00;99.90
5956;DHT22;3004;48.080;11.600;2022-07-21T08:01:02;21.00;99.90
5956;DHT22;3004;48.080;11.600;2022-07-21T08:03:31;21.10;99.90
5956;DHT22;3004;48.080;11.600;2022-07-21T08:05:58;21.20;99.90
5956;DHT22;3004;48.080;11.600;2022-07-21T08:08:29;21.10;99.90
5956;DHT22;3004;48.080;11.600;2022-07-21T08:10:58;21.10;99.90
5956;DHT22;3004;48.080;11.600;2022-07-21T08:13:25;21.20;99.90
5956;DHT22;3004;48.080;11.600;2022-07-21T08:15:52;21.10;99.90
5956;DHT22;3004;48.080;11.600;2022-07-21T08:18:19;21.10;99.90
5956;DHT22;3004;48.080;11.600;2022-07-21T08:20:47;21.10;99.90
5956;DHT22;3004;48.080;11.600;2022-07-21T08:23:15;21.10;99.90
5956;DHT22;3004;48.080;11.600;2022-07-21T08:25:42;21.10;99.90
5956;DHT22;3004;48.080;11.600;2022-07-21T08:28:11;21.00;99.90
5956;DHT22;3004;48.080;11.600;2022-07-21T08:30:39;21.00;99.90
5956;DHT22;3004;48.080;11.600;2022-07-21T08:33:06;21.00;99.90
5956;DHT22;3004;48.080;11.600;2022-07-21T08:35:33;21.10;99.90
5956;DHT22;3004;48.080;11.600;2022-07-21T08:38:01;21.00;99.90
5956;DHT22;3004;48.080;11.600;2022-07-21T08:40:33;21.10;99.90
5956;DHT22;3004;48.080;11.600;2022-07-21T08:43:00;21.10;99.90
5956;DHT22;3004;48.080;11.600;2022-07-21T08:45:31;21.10;99.90
5956;DHT22;3004;48.080;11.600;2022-07-21T08:47:59;21.00;99.90
5956;DHT22;3004;48.080;11.600;2022-07-21T08:50:30;20.90;99.90
5956;DHT22;3004;48.080;11.600;2022-07-21T08:52:57;20.90;99.90
5956;DHT22;3004;48.080;11.600;2022-07-21T08:55:24;20.90;99.90
5956;DHT22;3004;48.080;11.600;2022-07-21T08:57:51;20.90;99.90
5956;DHT22;3004;48.080;11.600;2022-07-21T09:00:18;21.00;99.90
5956;DHT22;3004;48.080;11.600;2022-07-21T09:02:46;20.90;99.90
5956;DHT22;3004;48.080;11.600;2022-07-21T09:05:13;20.90;99.90
5956;DHT22;3004;48.080;11.600;2022-07-21T09:07:48;20.90;99.90
5956;DHT22;3004;48.080;11.600;2022-07-21T09:10:15;21.00;99.90
5956;DHT22;3004;48.080;11.600;2022-07-21T09:12:49;21.00;99.90
5956;DHT22;3004;48.080;11.600;2022-07-21T09:15:18;21.00;99.90
5956;DHT22;3004;48.080;11.600;2022-07-21T09:18:04;21.10;99.90
5956;DHT22;3004;48.080;11.600;2022-07-21T09:20:31;21.10;99.90
5956;DHT22;3004;48.080;11.600;2022-07-21T09:23:04;21.10;99.90
5956;DHT22;3004;48.080;11.600;2022-07-21T09:25:36;21.10;99.90
5956;DHT22;3004;48.080;11.600;2022-07-21T09:28:13;21.10;99.90
5956;DHT22;3004;48.080;11.600;2022-07-21T09:30:55;21.00;99.90
5956;DHT22;3004;48.080;11.600;2022-07-21T09:33:27;21.00;99.90
5956;DHT22;3004;48.080;11.600;2022-07-21T09:36:04;20.90;99.90
5956;DHT22;3004;48.080;11.600;2022-07-21T09:38:33;20.80;99.90
5956;DHT22;3004;48.080;11.600;2022-07-21T09:41:09;20.80;99.90
5956;DHT22;3004;48.080;11.600;2022-07-21T09:43:42;20.80;99.90
5956;DHT22;3004;48.080;11.600;2022-07-21T09:46:13;20.70;99.90
5956;DHT22;3004;48.080;11.600;2022-07-21T09:48:43;20.70;99.90
5956;DHT22;3004;48.080;11.600;2022-07-21T09:51:35;20.70;99.90
5956;DHT22;3004;48.080;11.600;2022-07-21T09:54:05;20.70;99.90
5956;DHT22;3004;48.080;11.600;2022-07-21T09:56:35;20.60;99.90
5956;DHT22;3004;48.080;11.600;2022-07-21T09:59:03;20.60;99.90
5956;DHT22;3004;48.080;11.600;2022-07-21T10:01:31;20.60;99.90
5956;DHT22;3004;48.080;11.600;2022-07-21T10:04:00;20.40;99.90
5956;DHT22;3004;48.080;11.600;2022-07-21T10:06:30;20.30;99.90
5956;DHT22;3004;48.080;11.600;2022-07-21T10:08:58;20.20;99.90
5956;DHT22;3004;48.080;11.600;2022-07-21T10:11:26;20.20;99.90
5956;DHT22;3004;48.080;11.600;2022-07-21T10:13:53;20.00;99.90
5956;DHT22;3004;48.080;11.600;2022-07-21T10:16:21;19.90;99.90
5956;DHT22;3004;48.080;11.600;2022-07-21T10:18:55;19.90;99.90
5956;DHT22;3004;48.080;11.600;2022-07-21T10:21:36;19.70;99.90
5956;DHT22;3004;48.080;11.600;2022-07-21T10:24:05;19.60;99.90
5956;DHT22;3004;48.080;11.600;2022-07-21T10:26:32;19.60;99.90
5956;DHT22;3004;48.080;11.600;2022-07-21T10:28:59;19.50;99.90
5956;DHT22;3004;48.080;11.600;2022-07-21T10:31:26;19.40;99.90
5956;DHT22;3004;48.080;11.600;2022-07-21T10:33:59;19.40;99.90
5956;DHT22;3004;48.080;11.600;2022-07-21T10:36:44;19.30;99.90
5956;DHT22;3004;48.080;11.600;2022-07-21T10:39:24;19.30;99.90
5956;DHT22;3004;48.080;11.600;2022-07-21T10:41:53;19.30;99.90
5956;DHT22;3004;48.080;11.600;2022-07-21T10:44:40;19.20;99.90
5956;DHT22;3004;48.080;11.600;2022-07-21T10:47:08;19.20;99.90
5956;DHT22;3004;48.080;11.600;2022-07-21T10:49:47;19.30;99.90
5956;DHT22;3004;48.080;11.600;2022-07-21T10:55:21;19.20;99.90
5956;DHT22;3004;48.080;11.600;2022-07-21T10:58:26;19.30;99.90
5956;DHT22;3004;48.080;11.600;2022-07-21T11:00:54;19.40;99.90
5956;DHT22;3004;48.080;11.600;2022-07-21T11:03:26;19.50;99.90
5956;DHT22;3004;48.080;11.600;2022-07-21T11:08:51;19.50;99.90
5956;DHT22;3004;48.080;11.600;2022-07-21T11:11:21;19.60;99.90
5956;DHT22;3004;48.080;11.600;2022-07-21T11:14:07;19.50;99.90
5956;DHT22;3004;48.080;11.600;2022-07-21T11:17:09;19.60;99.90
5956;DHT22;3004;48.080;11.600;2022-07-21T11:19:42;19.60;99.90
5956;DHT22;3004;48.080;11.600;2022-07-21T11:22:13;19.70;99.90
5956;DHT22;3004;48.080;11.600;2022-07-21T11:24:42;19.80;99.90
5956;DHT22;3004;48.080;11.600;2022-07-21T11:27:12;19.80;99.90
5956;DHT22;3004;48.080;11.600;2022-07-21T11:29:40;19.90;99.90
5956;DHT22;3004;48.080;11.600;2022-07-21T11:32:08;19.80;99.90
5956;DHT22;3004;48.080;11.600;2022-07-21T11:34:41;19.80;99.90
5956;DHT22;3004;48.080;11.600;2022-07-21T11:37:09;19.90;99.90
5956;DHT22;3004;48.080;11.600;2022-07-21T11:39:36;19.90;99.90
5956;DHT22;3004;48.080;11.600;2022-07-21T11:42:04;20.00;99.90
5956;DHT22;3004;48.080;11.600;2022-07-21T11:44:33;20.00;99.90
5956;DHT22;3004;48.080;11.600;2022-07-21T11:47:02;20.00;99.90
5956;DHT22;3004;48.080;11.600;2022-07-21T11:49:29;20.00;99.90
5956;DHT22;3004;48.080;11.600;2022-07-21T11:51:59;20.00;99.90
5956;DHT22;3004;48.080;11.600;2022-07-21T11:54:29;20.00;99.90
5956;DHT22;3004;48.080;11.600;2022-07-21T11:56:57;20.10;99.90
5956;DHT22;3004;48.080;11.600;2022-07-21T11:59:24;20.10;99.90
5956;DHT22;3004;48.080;11.600;2022-07-21T12:02:02;20.10;99.90
5956;DHT22;3004;48.080;11.600;2022-07-21T12:04:32;20.00;99.90
5956;DHT22;3004;48.080;11.600;2022-07-21T12:07:02;20.10;99.90
5956;DHT22;3004;48.080;11.600;2022-07-21T12:09:31;20.10;99.90
5956;DHT22;3004;48.080;11.600;2022-07-21T12:11:58;20.20;99.90
5956;DHT22;3004;48.080;11.600;2022-07-21T12:14:46;20.20;99.90
5956;DHT22;3004;48.080;11.600;2022-07-21T12:17:16;20.30;99.90
5956;DHT22;3004;48.080;11.600;2022-07-21T12:19:45;20.30;99.90
5956;DHT22;3004;48.080;11.600;2022-07-21T12:22:12;20.30;99.90
5956;DHT22;3004;48.080;11.600;2022-07-21T12:24:56;20.30;99.90
5956;DHT22;3004;48.080;11.600;2022-07-21T12:27:24;20.30;99.90
5956;DHT22;3004;48.080;11.600;2022-07-21T12:29:51;20.40;99.90
5956;DHT22;3004;48.080;11.600;2022-07-21T12:32:39;20.40;99.90
5956;DHT22;3004;48.080;11.600;2022-07-21T12:35:15;20.40;99.90
5956;DHT22;3004;48.080;11.600;2022-07-21T12:37:52;20.40;99.90
5956;DHT22;3004;48.080;11.600;2022-07-21T12:40:20;20.40;99.90
5956;DHT22;3004;48.080;11.600;2022-07-21T12:42:47;20.50;99.90
5956;DHT22;3004;48.080;11.600;2022-07-21T12:45:16;20.60;99.90
5956;DHT22;3004;48.080;11.600;2022-07-21T12:48:05;20.60;99.90
5956;DHT22;3004;48.080;11.600;2022-07-21T12:50:32;20.70;99.90
5956;DHT22;3004;48.080;11.600;2022-07-21T12:52:59;20.70;99.90
5956;DHT22;3004;48.080;11.600;2022-07-21T12:55:26;20.80;99.90
5956;DHT22;3004;48.080;11.600;2022-07-21T12:57:54;20.80;99.90
5956;DHT22;3004;48.080;11.600;2022-07-21T13:00:21;20.80;99.90
5956;DHT22;3004;48.080;11.600;2022-07-21T13:02:52;20.80;99.90
5956;DHT22;3004;48.080;11.600;2022-07-21T13:05:20;20.90;99.90
5956;DHT22;3004;48.080;11.600;2022-07-21T13:07:47;20.80;99.90
5956;DHT22;3004;48.080;11.600;2022-07-21T13:10:15;20.70;99.90
5956;DHT22;3004;48.080;11.600;2022-07-21T13:12:42;20.70;99.90
5956;DHT22;3004;48.080;11.600;2022-07-21T13:15:09;20.80;99.90
5956;DHT22;3004;48.080;11.600;2022-07-21T13:17:38;20.80;99.90
5956;DHT22;3004;48.080;11.600;2022-07-21T13:20:07;20.80;99.90
5956;DHT22;3004;48.080;11.600;2022-07-21T13:22:35;20.80;99.90
5956;DHT22;3004;48.080;11.600;2022-07-21T13:25:02;20.90;99.90
5956;DHT22;3004;48.080;11.600;2022-07-21T13:27:28;20.90;99.90
5956;DHT22;3004;48.080;11.600;2022-07-21T13:29:55;20.90;99.90
5956;DHT22;3004;48.080;11.600;2022-07-21T13:32:22;20.80;99.90
5956;DHT22;3004;48.080;11.600;2022-07-21T13:34:49;20.90;99.90
5956;DHT22;3004;48.080;11.600;2022-07-21T13:37:18;20.90;99.90
5956;DHT22;3004;48.080;11.600;2022-07-21T13:39:45;21.00;99.90
5956;DHT22;3004;48.080;11.600;2022-07-21T13:42:12;21.10;99.90
5956;DHT22;3004;48.080;11.600;2022-07-21T13:44:39;21.10;99.90
5956;DHT22;3004;48.080;11.600;2022-07-21T13:47:06;21.10;99.90
5956;DHT22;3004;48.080;11.600;2022-07-21T13:49:33;21.00;99.90
5956;DHT22;3004;48.080;11.600;2022-07-21T13:52:00;21.00;99.90
5956;DHT22;3004;48.080;11.600;2022-07-21T13:54:28;21.10;99.90
5956;DHT22;3004;48.080;11.600;2022-07-21T13:56:55;21.10;99.90
5956;DHT22;3004;48.080;11.600;2022-07-21T13:59:24;21.10;99.90
5956;DHT22;3004;48.080;11.600;2022-07-21T14:01:51;21.10;99.90
5956;DHT22;3004;48.080;11.600;2022-07-21T14:04:18;21.20;99.90
5956;DHT22;3004;48.080;11.600;2022-07-21T14:06:45;21.30;99.90
5956;DHT22;3004;48.080;11.600;2022-07-21T14:09:14;21.30;99.90
5956;DHT22;3004;48.080;11.600;2022-07-21T14:11:43;21.30;99.90
5956;DHT22;3004;48.080;11.600;2022-07-21T14:14:11;21.50;99.90
5956;DHT22;3004;48.080;11.600;2022-07-21T14:16:42;21.50;99.90
5956;DHT22;3004;48.080;11.600;2022-07-21T14:19:09;21.50;99.90
5956;DHT22;3004;48.080;11.600;2022-07-21T14:21:36;21.60;99.90
5956;DHT22;3004;48.080;11.600;2022-07-21T14:24:04;21.70;99.90
5956;DHT22;3004;48.080;11.600;2022-07-21T14:26:49;21.80;99.90
5956;DHT22;3004;48.080;11.600;2022-07-21T14:29:16;21.90;99.90
5956;DHT22;3004;48.080;11.600;2022-07-21T14:31:43;21.80;99.90
5956;DHT22;3004;48.080;11.600;2022-07-21T14:34:10;21.90;99.90
5956;DHT22;3004;48.080;11.600;2022-07-21T14:36:37;21.90;99.90
5956;DHT22;3004;48.080;11.600;2022-07-21T14:39:04;22.00;99.90
5956;DHT22;3004;48.080;11.600;2022-07-21T14:41:31;22.30;99.90
5956;DHT22;3004;48.080;11.600;2022-07-21T14:43:59;22.70;99.90
5956;DHT22;3004;48.080;11.600;2022-07-21T14:46:29;22.90;99.90
5956;DHT22;3004;48.080;11.600;2022-07-21T14:48:56;22.60;99.90
5956;DHT22;3004;48.080;11.600;2022-07-21T14:51:23;22.40;99.90
5956;DHT22;3004;48.080;11.600;2022-07-21T14:53:52;22.30;99.90
5956;DHT22;3004;48.080;11.600;2022-07-21T14:56:19;22.50;99.90
5956;DHT22;3004;48.080;11.600;2022-07-21T14:58:46;22.60;99.90
5956;DHT22;3004;48.080;11.600;2022-07-21T15:01:14;22.70;99.90
5956;DHT22;3004;48.080;11.600;2022-07-21T15:03:41;22.70;99.90
5956;DHT22;3004;48.080;11.600;2022-07-21T15:06:20;22.90;99.90
5956;DHT22;3004;48.080;11.600;2022-07-21T15:08:47;22.90;99.90
5956;DHT22;3004;48.080;11.600;2022-07-21T15:11:14;23.00;99.90
5956;DHT22;3004;48.080;11.600;2022-07-21T15:13:52;23.10;99.90
5956;DHT22;3004;48.080;11.600;2022-07-21T15:16:20;23.40;99.90
5956;DHT22;3004;48.080;11.600;2022-07-21T15:18:53;23.40;99.90
5956;DHT22;3004;48.080;11.600;2022-07-21T15:21:20;23.40;99.90
5956;DHT22;3004;48.080;11.600;2022-07-21T15:23:47;23.40;99.90
5956;DHT22;3004;48.080;11.600;2022-07-21T15:26:17;23.40;99.90
5956;DHT22;3004;48.080;11.600;2022-07-21T15:28:44;23.30;99.90
5956;DHT22;3004;48.080;11.600;2022-07-21T15:31:11;23.20;99.90
5956;DHT22;3004;48.080;11.600;2022-07-21T15:33:39;23.10;99.90
5956;DHT22;3004;48.080;11.600;2022-07-21T15:36:07;23.10;99.90
5956;DHT22;3004;48.080;11.600;2022-07-21T15:38:34;23.20;99.90
5956;DHT22;3004;48.080;11.600;2022-07-21T15:41:01;23.10;99.90
5956;DHT22;3004;48.080;11.600;2022-07-21T15:43:29;23.10;99.90
5956;DHT22;3004;48.080;11.600;2022-07-21T15:45:56;23.20;99.90
5956;DHT22;3004;48.080;11.600;2022-07-21T15:48:23;23.30;99.90
5956;DHT22;3004;48.080;11.600;2022-07-21T15:50:51;23.40;99.90
5956;DHT22;3004;48.080;11.600;2022-07-21T15:53:18;23.40;99.90
5956;DHT22;3004;48.080;11.600;2022-07-21T15:55:45;23.60;99.90
5956;DHT22;3004;48.080;11.600;2022-07-21T15:58:12;23.60;99.90
5956;DHT22;3004;48.080;11.600;2022-07-21T16:00:39;23.50;99.90